EFHK/HEL METAR and TAF weather

Enter ICAO airport designator
Station Type Date Time Source
EFHK METAR 2019/06/19 02:50 UTC NOAA

EFHK 190250Z 20005KT CAVOK 14/12 Q1015 NOSIG


Station Type Date Time Source
EFHK Decoded METAR 2019/06/19 02:50 UTC NOAA

Helsinki-Vantaa, Finland (EFHK) 60-19N 024-58E 56M
Jun 18, 2019 - 10:50 PM EDT / 2019.06.19 0250 UTC
Wind: from the SSW (200 degrees) at 6 MPH (5 KT):0
Visibility: greater than 7 mile(s):0
Temperature: 57 F (14 C)
Dew Point: 53 F (12 C)
Relative Humidity: 87%
Pressure (altimeter): 29.97 in. Hg (1015 hPa)
ob: EFHK 190250Z 20005KT CAVOK 14/12 Q1015 NOSIG
cycle: 3

Station Type Date Time Source
EFHK TAF 2019/06/19 03:43 UTC NOAA

TAF EFHK 190232Z 1903/2003 21007KT CAVOK
TEMPO 1909/1915 22015G25KT

Example: see airport list